Latest Weather Observations for Hervey Bay

IDQ60801

Issued at 7:07 pm EST Friday 30 January 2015 (issued every 30 minutes, with the page automatically refreshed every 10 minutes)

About weather observations | Map of weather stations | Latest weather observations for QLD | Other Formats
Station Details ID: 040405 Name: HERVEY BAY AIRPORT Lat: -25.32 Lon: 152.88 Height: 12.98 m
Data from the previous 72 hours. | See also: Recent months at Hervey Bay
Date/Time
EST
Temp
°C
App
Temp
°C
Dew
Point
Rel
Hum
%
Delta-T
°C
Wind Press
QNH
hPa
Press
MSL
hPa
Rain
since 9 am
mm
Dir
 
Spd
km/h
Gust
km/h
Spd
kts
Gust
kts
30/07:00pm 25.2 25.6 19.1 69 3.9 ENE 15 20 8 11 1007.6 1007.5 0.0
30/06:30pm 25.5 25.5 18.9 67 4.2 E 17 20 9 11 1007.2 1007.1 0.0
30/06:00pm 26.4 26.6 19.3 65 4.6 E 17 26 9 14 1007.0 1006.9 0.0
30/05:30pm 27.0 26.8 19.4 63 4.9 E 19 24 10 13 1006.8 1006.7 0.0
30/05:00pm 27.5 27.5 19.8 63 5.0 E 19 26 10 14 1006.6 1006.5 0.0
30/04:30pm 27.3 27.5 19.4 62 5.1 ESE 17 26 9 14 1006.7 1006.6 0.0
30/04:00pm 28.3 27.7 19.8 60 5.6 ESE 22 30 12 16 1006.6 1006.5 0.0
30/03:30pm 27.8 28.3 19.3 60 5.5 ESE 15 20 8 11 1006.7 1006.6 0.0
30/03:00pm 27.3 27.0 19.6 62 5.0 ESE 20 26 11 14 1006.7 1006.6 0.0
30/02:30pm 27.4 26.8 18.9 59 5.5 ESE 20 26 11 14 1006.9 1006.8 0.0
30/02:00pm 28.9 28.4 19.2 55 6.3 ESE 20 28 11 15 1007.0 1006.9 0.0
30/01:30pm 29.0 28.3 19.6 57 6.1 ESE 22 30 12 16 1007.4 1007.3 0.0
30/01:00pm 29.3 29.2 19.9 57 6.2 E 20 28 11 15 1007.6 1007.5 0.0
30/12:30pm 28.5 28.1 19.4 57 5.9 E 20 26 11 14 1008.2 1008.1 0.0
30/12:00pm 28.9 28.7 18.4 53 6.7 ESE 17 26 9 14 1008.5 1008.4 0.0
30/11:30am 28.2 27.5 18.6 56 6.2 ESE 20 32 11 17 1008.8 1008.7 0.0
30/11:00am 28.2 28.3 19.1 57 5.9 E 17 28 9 15 1008.9 1008.8 0.0
30/10:30am 27.5 27.9 19.0 59 5.5 SE 15 20 8 11 1009.1 1009.0 0.0
30/10:00am 27.6 28.0 19.1 59 5.5 ESE 15 20 8 11 1009.3 1009.2 0.0
30/09:30am 27.6 28.8 19.9 63 5.0 SSE 13 28 7 15 1009.4 1009.3 0.0
30/09:00am 26.3 27.3 19.4 66 4.5 S 13 17 7 9 1009.3 1009.2 0.2
30/08:30am 26.4 28.2 20.3 69 4.0 S 11 17 6 9 1009.3 1009.2 0.2
30/08:00am 25.5 27.1 19.9 71 3.6 SSW 11 17 6 9 1009.4 1009.3 0.2
30/07:30am 24.2 25.8 19.9 77 2.8 SSW 11 15 6 8 1009.2 1009.1 0.2
30/07:00am 22.6 24.0 19.6 83 1.9 SSW 11 13 6 7 1009.0 1008.9 0.2
30/06:30am 21.1 23.0 19.0 88 1.3 SSW 7 9 4 5 1008.8 1008.7 0.2
30/06:00am 20.1 22.2 18.9 93 0.8 SW 6 9 3 5 1008.5 1008.4 0.2
30/05:30am 19.8 20.9 18.8 94 0.6 SW 11 15 6 8 1008.2 1008.1 0.2
30/05:00am 19.5 21.4 18.5 94 0.6 SSW 6 9 3 5 1007.6 1007.5 0.2
30/04:30am 19.6 21.4 18.4 93 0.7 SSW 6 9 3 5 1007.6 1007.5 0.2
30/04:00am 19.4 22.3 18.1 92 0.8 CALM 0 0 0 0 1007.7 1007.6 0.2
30/03:30am 19.6 22.6 18.4 93 0.7 CALM 0 6 0 3 1007.6 1007.5 0.2
30/03:00am 20.0 21.8 18.7 92 0.8 SSW 7 9 4 5 1007.7 1007.6 0.2
30/02:30am 19.9 21.8 18.6 92 0.8 SSW 6 9 3 5 1007.7 1007.6 0.2
30/02:00am 20.1 23.2 18.6 91 0.9 CALM 0 0 0 0 1008.0 1007.9 0.2
30/01:30am 20.6 22.6 19.1 91 0.9 SSW 7 9 4 5 1008.2 1008.1 0.2
30/01:00am 21.2 23.2 18.8 86 1.5 SSE 6 7 3 4 1008.4 1008.3 0.2
30/12:30am 21.9 23.6 18.5 81 2.1 SSE 7 9 4 5 1008.5 1008.4 0.2
30/12:00am 22.3 23.5 18.3 78 2.5 SSE 9 11 5 6 1008.8 1008.7 0.2
 
Date/Time
EST
Temp
°C
App
Temp
°C
Dew
Point
Rel
Hum
%
Delta-T
°C
Wind Press
QNH
hPa
Press
MSL
hPa
Rain
since 9 am
mm
Dir
 
Spd
km/h
Gust
km/h
Spd
kts
Gust
kts
29/11:30pm 23.3 24.9 18.2 73 3.2 SE 7 11 4 6 1009.2 1009.1 0.2
29/11:00pm 23.7 24.4 17.9 70 3.6 SE 11 13 6 7 1009.2 1009.1 0.2
29/10:30pm 23.9 24.5 17.6 68 3.9 SE 11 15 6 8 1009.4 1009.3 0.2
29/10:00pm 24.6 25.2 18.5 69 3.9 SE 13 20 7 11 1009.4 1009.3 0.2
29/09:30pm 24.5 25.3 19.1 72 3.4 SE 13 20 7 11 1009.3 1009.2 0.2
29/09:00pm 24.6 25.7 19.7 74 3.2 SE 13 22 7 12 1008.9 1008.8 0.2
29/08:30pm 24.7 25.6 20.0 75 3.0 SE 15 24 8 13 1008.8 1008.7 0.2
29/08:00pm 24.4 25.3 20.1 77 2.8 ESE 15 24 8 13 1008.5 1008.4 0.2
29/07:30pm 24.4 25.5 20.5 79 2.5 SE 15 26 8 14 1008.3 1008.2 0.2
29/07:00pm 24.4 24.5 19.9 76 2.9 SE 19 26 10 14 1008.0 1007.9 0.2
29/06:30pm 24.5 24.5 20.2 77 2.8 ESE 20 33 11 18 1007.8 1007.7 0.2
29/06:00pm 24.7 25.3 20.2 76 2.9 SE 17 24 9 13 1007.5 1007.4 0.2
29/05:30pm 24.7 24.9 20.2 76 2.9 SE 19 32 10 17 1007.3 1007.2 0.2
29/05:00pm 25.0 24.4 20.5 76 2.9 ESE 24 33 13 18 1006.8 1006.7 0.2
29/04:30pm 26.0 26.3 19.6 68 4.1 SE 17 32 9 17 1006.5 1006.4 0.2
29/04:00pm 26.2 26.8 20.3 70 3.9 SE 17 28 9 15 1006.2 1006.1 0.2
29/03:30pm 26.3 25.9 19.4 66 4.5 SSE 20 32 11 17 1006.2 1006.1 0.2
29/03:00pm 26.8 26.7 19.9 66 4.5 SSE 20 35 11 19 1006.4 1006.3 0.2
29/02:30pm 27.0 26.8 20.6 68 4.2 SSE 22 37 12 20 1006.5 1006.4 0.2
29/02:00pm 27.2 26.7 20.0 64 4.7 SSE 22 33 12 18 1006.6 1006.5 0.2
29/01:30pm 26.7 26.4 19.6 65 4.6 SSE 20 30 11 16 1006.6 1006.5 0.2
29/01:00pm 26.5 26.9 19.9 67 4.3 SSE 17 30 9 16 1006.7 1006.6 0.2
29/12:30pm 26.3 26.5 20.2 69 4.0 S 19 30 10 16 1007.0 1006.9 0.2
29/12:00pm 25.7 25.7 19.8 70 3.8 S 19 30 10 16 1007.3 1007.2 0.2
29/11:30am 25.2 25.9 20.5 75 3.1 SSE 17 28 9 15 1007.5 1007.4 0.2
29/11:00am 25.1 26.8 21.0 78 2.7 S 13 20 7 11 1007.6 1007.5 0.2
29/10:30am 24.9 26.5 20.8 78 2.7 S 13 20 7 11 1007.8 1007.7 0.2
29/10:00am 24.3 25.1 20.6 80 2.4 SE 17 28 9 15 1007.6 1007.5 0.0
29/09:30am 24.4 25.9 20.5 79 2.5 S 13 20 7 11 1007.7 1007.6 0.0
29/09:00am 24.2 25.1 20.1 78 2.7 S 15 24 8 13 1007.5 1007.4 4.2
29/08:30am 23.2 24.7 20.5 85 1.8 S 13 20 7 11 1007.2 1007.1 4.2
29/08:00am 22.1 24.3 20.4 90 1.1 S 9 15 5 8 1007.3 1007.2 4.2
29/07:30am 21.4 22.6 19.9 91 1.0 SSW 13 17 7 9 1007.2 1007.1 4.2
29/07:00am 21.1 23.0 19.7 92 0.9 SSW 9 13 5 7 1007.0 1006.9 4.2
29/06:30am 21.1 22.6 19.7 92 0.9 SSW 11 15 6 8 1007.0 1006.9 4.2
29/06:00am 20.9 22.5 19.2 90 1.1 SSW 9 13 5 7 1006.4 1006.3 4.0
29/05:30am 21.0 21.3 18.8 87 1.4 SSW 15 19 8 10 1006.2 1006.1 4.0
29/05:00am 21.3 22.1 19.0 87 1.5 SSW 13 20 7 11 1005.9 1005.8 4.0
29/04:30am 22.1 23.3 20.0 88 1.3 S 13 20 7 11 1005.6 1005.5 4.0
29/04:00am 21.9 23.1 19.8 88 1.3 S 13 19 7 10 1005.3 1005.2 3.8
29/03:30am 21.7 24.2 20.3 92 0.9 SSW 7 13 4 7 1005.6 1005.5 3.8
29/03:00am 21.5 23.7 19.6 89 1.2 S 7 11 4 6 1005.5 1005.4 3.8
29/02:30am 21.6 23.8 19.7 89 1.2 S 7 11 4 6 1005.4 1005.3 3.8
29/02:00am 21.8 22.7 20.1 90 1.1 SSW 15 22 8 12 1005.6 1005.5 3.8
29/01:30am 22.1 23.2 20.4 90 1.1 S 15 20 8 11 1005.8 1005.7 3.8
29/01:00am 22.1 24.1 20.7 92 0.9 SSW 11 19 6 10 1006.2 1006.1 3.8
29/12:30am 22.0 24.0 20.8 93 0.8 S 11 17 6 9 1006.2 1006.1 3.8
29/12:28am 21.9 23.5 20.7 93 0.8 SSE 13 20 7 11 1006.2 1006.1 3.8
29/12:08am 22.0 23.5 20.6 92 0.9 S 13 22 7 12 1006.5 1006.4 3.2
29/12:00am 22.3 24.8 21.1 93 0.8 SSW 9 13 5 7 1006.5 1006.4 2.8
 
Date/Time
EST
Temp
°C
App
Temp
°C
Dew
Point
Rel
Hum
%
Delta-T
°C
Wind Press
QNH
hPa
Press
MSL
hPa
Rain
since 9 am
mm
Dir
 
Spd
km/h
Gust
km/h
Spd
kts
Gust
kts
28/11:30pm 22.4 25.1 21.4 94 0.7 SSW 9 13 5 7 1006.9 1006.8 2.8
28/11:08pm 22.3 24.1 21.1 93 0.8 SE 13 19 7 10 1006.9 1006.8 2.0
28/11:00pm 22.4 24.6 21.2 93 0.8 SSE 11 17 6 9 1007.0 1006.9 1.8
28/10:30pm 22.3 24.7 20.9 92 0.9 S 9 15 5 8 1007.1 1007.0 1.4
28/10:00pm 22.4 24.5 20.9 91 1.0 SE 11 17 6 9 1006.8 1006.7 1.2
28/09:30pm 22.3 24.1 20.4 89 1.2 SSE 11 19 6 10 1006.9 1006.8 1.0
28/09:00pm 23.3 24.8 20.6 85 1.8 S 13 20 7 11 1006.4 1006.3 0.6
28/08:30pm 23.0 24.6 20.7 87 1.5 S 13 19 7 10 1006.2 1006.1 0.6
28/08:00pm 22.7 24.6 20.6 88 1.4 SSE 11 17 6 9 1006.1 1006.0 0.6
28/07:30pm 22.2 23.6 20.3 89 1.2 SE 13 19 7 10 1006.2 1006.1 0.6
28/07:00pm 22.0 22.7 19.7 87 1.5 S 15 26 8 14 1006.3 1006.2 0.4
28/06:30pm 22.5 24.0 20.6 89 1.2 S 13 22 7 12 1006.3 1006.2 0.2
28/06:04pm 22.7 23.4 21.2 91 1.0 SE 19 32 10 17 1005.5 1005.4 0.2
28/06:00pm 22.6 23.0 20.9 90 1.1 SE 20 32 11 17 1005.2 1005.1 0.2
28/05:47pm 22.7 22.8 20.4 87 1.5 SSE 20 41 11 22 1005.0 1004.9 0.2
28/05:30pm 24.1 24.8 20.4 80 2.4 SSE 17 28 9 15 1005.0 1004.9 0.0
28/05:00pm 24.3 24.6 20.4 79 2.5 S 19 30 10 16 1004.4 1004.3 0.0
28/04:30pm 24.4 25.2 20.7 80 2.4 SSE 17 26 9 14 1004.2 1004.1 0.0
28/04:00pm 24.2 25.8 21.5 85 1.8 SSE 15 24 8 13 1004.4 1004.3 0.0
28/03:30pm 24.2 24.8 21.3 84 1.9 SSE 20 37 11 20 1004.1 1004.0 0.0
28/03:00pm 25.0 25.2 21.3 80 2.5 SSE 22 35 12 19 1004.2 1004.1 0.0
28/02:30pm 25.8 27.0 22.1 80 2.5 SSE 19 30 10 16 1004.0 1003.9 0.0
28/02:00pm 25.7 26.1 20.7 74 3.3 SSE 19 26 10 14 1004.3 1004.2 0.0
28/01:30pm 26.5 27.1 21.0 72 3.6 SSE 19 26 10 14 1004.0 1003.9 0.0
28/01:00pm 26.0 26.4 20.6 72 3.6 SSE 19 28 10 15 1004.2 1004.1 0.0
28/12:30pm 25.5 26.1 21.0 76 3.0 SSE 19 26 10 14 1004.5 1004.4 0.0
28/12:00pm 26.1 26.4 20.7 72 3.6 SSE 20 32 11 17 1004.6 1004.5 0.0
28/11:30am 26.3 27.2 20.8 71 3.6 SSE 17 28 9 15 1005.0 1004.9 0.0
28/11:00am 26.5 27.0 20.1 68 4.2 SSE 17 22 9 12 1005.1 1005.0 0.0
28/10:30am 27.1 28.2 20.4 66 4.4 SE 15 22 8 12 1005.2 1005.1 0.0
28/10:00am 26.2 26.5 19.6 67 4.3 SE 17 28 9 15 1005.2 1005.1 0.0
28/09:30am 26.7 27.7 20.3 68 4.2 SE 15 24 8 13 1005.2 1005.1 0.0
28/09:00am 26.6 27.4 20.7 70 3.9 SSE 17 30 9 16 1005.0 1004.9 0.2
28/08:30am 25.9 27.2 20.9 74 3.3 SSE 15 22 8 12 1004.8 1004.7 0.2
28/08:00am 25.5 25.9 20.7 75 3.2 SSE 19 33 10 18 1004.6 1004.5 0.2
28/07:30am 25.8 27.2 21.0 75 3.2 SSE 15 24 8 13 1004.4 1004.3 0.2
28/07:00am 24.7 26.6 21.4 82 2.2 S 13 20 7 11 1004.2 1004.1 0.2
28/06:30am 24.6 27.3 21.3 82 2.2 S 9 13 5 7 1004.0 1003.9 0.2
28/06:00am 24.3 26.7 20.8 81 2.3 S 9 11 5 6 1003.6 1003.5 0.2
28/05:30am 24.9 27.0 21.0 79 2.6 SSE 11 17 6 9 1003.2 1003.1 0.2
28/05:00am 24.6 26.5 20.5 78 2.7 SE 11 19 6 10 1003.2 1003.1 0.2
28/04:30am 24.4 25.5 20.5 79 2.5 SE 15 22 8 12 1003.0 1002.9 0.2
28/04:00am 23.7 25.3 20.8 84 1.9 SE 13 19 7 10 1003.2 1003.1 0.2
28/03:30am 24.5 25.9 20.4 78 2.7 SSE 13 20 7 11 1003.8 1003.7 0.0
28/03:00am 25.5 26.6 20.5 74 3.3 SE 15 22 8 12 1003.6 1003.5 0.0
28/02:30am 25.1 27.1 20.8 77 2.8 SE 11 24 6 13 1003.7 1003.6 0.0
28/02:00am 25.6 27.6 20.8 75 3.2 SE 11 19 6 10 1004.2 1004.1 0.0
28/01:30am 25.8 27.5 21.0 75 3.2 SSE 13 20 7 11 1004.5 1004.4 0.0
28/01:00am 25.9 27.2 20.9 74 3.3 SE 15 24 8 13 1004.7 1004.6 0.0
28/12:30am 26.1 27.5 21.1 74 3.3 SE 15 24 8 13 1005.2 1005.1 0.0
28/12:00am 26.1 26.7 21.1 74 3.3 ESE 19 24 10 13 1005.0 1004.9 0.0
 
Date/Time
EST
Temp
°C
App
Temp
°C
Dew
Point
Rel
Hum
%
Delta-T
°C
Wind Press
QNH
hPa
Press
MSL
hPa
Rain
since 9 am
mm
Dir
 
Spd
km/h
Gust
km/h
Spd
kts
Gust
kts
27/11:30pm 26.2 27.0 21.4 75 3.2 ESE 19 32 10 17 1005.1 1005.0 0.0
27/11:00pm 26.3 27.0 21.5 75 3.2 ESE 20 28 11 15 1005.4 1005.3 0.0
27/10:30pm 26.3 26.9 21.3 74 3.3 ESE 20 32 11 17 1005.4 1005.3 0.0
27/10:00pm 26.4 27.6 21.4 74 3.3 ESE 17 24 9 13 1005.4 1005.3 0.0
27/09:30pm 26.5 26.8 21.5 74 3.3 ESE 22 30 12 16 1005.4 1005.3 0.0
27/09:00pm 26.6 26.9 21.6 74 3.3 E 22 30 12 16 1005.5 1005.4 0.0
27/08:30pm 26.7 27.6 21.5 73 3.5 ESE 19 32 10 17 1005.4 1005.3 0.0
27/08:00pm 26.8 26.6 21.3 72 3.7 ESE 24 32 13 17 1005.1 1005.0 0.0
27/07:30pm 26.8 27.8 21.8 74 3.3 ESE 19 32 10 17 1005.4 1005.3 0.0

Other Formats:

Comma delimited format used in spreadsheet applications
http://www.bom.gov.au/fwo/IDQ60801/IDQ60801.95565.axf

JavaScript Object Notation format (JSON) in row-major order
http://www.bom.gov.au/fwo/IDQ60801/IDQ60801.95565.json